createdAt,value
2023-06-07T00:02:36.847Z,22.10
2023-06-07T00:05:11.274Z,22.09
2023-06-07T00:07:38.822Z,22.07
2023-06-07T00:10:07.807Z,22.05
2023-06-07T00:12:35.747Z,22.05
2023-06-07T00:15:03.399Z,22.02
2023-06-07T00:17:31.396Z,22.00
2023-06-07T00:19:59.104Z,21.99
2023-06-07T00:22:31.405Z,21.98
2023-06-07T00:24:59.006Z,21.96
2023-06-07T00:27:26.631Z,21.94
2023-06-07T00:29:54.256Z,21.93
2023-06-07T00:32:21.824Z,21.92
2023-06-07T00:34:49.395Z,21.92
2023-06-07T00:37:16.955Z,21.90
2023-06-07T00:39:45.869Z,21.89
2023-06-07T00:42:13.481Z,21.88
2023-06-07T00:44:41.244Z,21.87
2023-06-07T00:47:09.225Z,21.86
2023-06-07T00:49:36.860Z,21.84
2023-06-07T00:52:05.872Z,21.82
2023-06-07T00:54:33.486Z,21.80
2023-06-07T00:57:02.407Z,21.80
2023-06-07T00:59:30.612Z,21.80
2023-06-07T01:02:02.250Z,21.77
2023-06-07T01:04:30.299Z,21.75
2023-06-07T01:06:58.347Z,21.74
2023-06-07T01:09:26.745Z,21.73
2023-06-07T01:11:56.106Z,21.71
2023-06-07T01:14:26.594Z,21.70
2023-06-07T01:16:55.191Z,21.68
2023-06-07T01:19:24.739Z,21.66
2023-06-07T01:21:58.408Z,21.65
2023-06-07T01:24:30.869Z,21.65
2023-06-07T01:27:00.275Z,21.62
2023-06-07T01:29:28.419Z,21.59
2023-06-07T01:31:58.470Z,21.58
2023-06-07T01:34:26.781Z,21.57
2023-06-07T01:36:56.886Z,21.55
2023-06-07T01:39:27.921Z,21.54
2023-06-07T01:41:56.054Z,21.54
2023-06-07T01:44:23.718Z,21.53
2023-06-07T01:46:51.461Z,21.52
2023-06-07T01:49:20.499Z,21.51
2023-06-07T01:51:48.074Z,21.48
2023-06-07T01:54:17.513Z,21.47
2023-06-07T01:57:05.395Z,21.45
2023-06-07T01:59:43.237Z,21.42
2023-06-07T02:02:19.555Z,21.41
2023-06-07T02:04:49.882Z,21.40
2023-06-07T02:07:24.688Z,21.38
2023-06-07T02:09:55.900Z,21.37
2023-06-07T02:12:24.881Z,21.35
2023-06-07T02:14:53.754Z,21.32
2023-06-07T02:17:21.937Z,21.32
2023-06-07T02:19:49.615Z,21.31
2023-06-07T02:22:17.345Z,21.29
2023-06-07T02:24:45.440Z,21.28
2023-06-07T02:27:14.016Z,21.28
2023-06-07T02:29:43.080Z,21.27
2023-06-07T02:32:10.744Z,21.24
2023-06-07T02:34:38.322Z,21.23
2023-06-07T02:37:06.480Z,21.22
2023-06-07T02:39:34.478Z,21.21
2023-06-07T02:42:02.046Z,21.19
2023-06-07T02:44:29.904Z,21.17
2023-06-07T02:46:58.838Z,21.16
2023-06-07T02:49:26.751Z,21.14
2023-06-07T02:51:54.372Z,21.12
2023-06-07T02:54:21.925Z,21.11
2023-06-07T02:56:49.528Z,21.11
2023-06-07T02:59:17.109Z,21.08
2023-06-07T03:01:44.693Z,21.09
2023-06-07T03:04:13.625Z,21.07
2023-06-07T03:06:42.342Z,21.07
2023-06-07T03:09:10.210Z,21.05
2023-06-07T03:11:37.778Z,21.05
2023-06-07T03:14:05.388Z,21.05
2023-06-07T03:16:33.246Z,21.03
2023-06-07T03:19:00.862Z,21.01
2023-06-07T03:21:30.302Z,21.02
2023-06-07T03:23:57.942Z,21.00
2023-06-07T03:26:26.235Z,20.99
2023-06-07T03:28:55.741Z,20.98
2023-06-07T03:31:24.450Z,20.97
2023-06-07T03:33:52.189Z,20.97
2023-06-07T03:36:22.423Z,20.96
2023-06-07T03:38:51.386Z,20.96
2023-06-07T03:41:18.984Z,20.94
2023-06-07T03:43:46.576Z,20.93
2023-06-07T03:46:14.117Z,20.96
2023-06-07T03:48:41.805Z,20.92
2023-06-07T03:51:09.810Z,20.93
2023-06-07T03:53:37.667Z,20.92
2023-06-07T03:56:07.323Z,20.93
2023-06-07T03:58:34.924Z,20.93
2023-06-07T04:01:02.549Z,20.93
2023-06-07T04:03:31.846Z,20.92
2023-06-07T04:06:00.422Z,20.92
2023-06-07T04:08:28.927Z,20.91
2023-06-07T04:10:56.722Z,20.92
2023-06-07T04:13:25.865Z,20.93
2023-06-07T04:15:53.522Z,20.92
2023-06-07T04:18:21.439Z,20.92
2023-06-07T04:20:49.049Z,20.93
2023-06-07T04:23:16.801Z,20.95
2023-06-07T04:25:44.584Z,20.99
2023-06-07T04:28:13.250Z,21.01
2023-06-07T04:30:43.362Z,21.02
2023-06-07T04:33:13.663Z,21.07
2023-06-07T04:35:43.797Z,21.14
2023-06-07T04:38:12.819Z,21.36
2023-06-07T04:40:42.279Z,21.87
2023-06-07T04:43:12.165Z,22.27
2023-06-07T04:45:42.364Z,22.60
2023-06-07T04:48:12.746Z,22.85
2023-06-07T04:50:42.431Z,23.08
2023-06-07T04:53:11.868Z,23.30
2023-06-07T04:55:42.093Z,23.52
2023-06-07T04:58:10.175Z,23.74
2023-06-07T05:00:40.130Z,24.05
2023-06-07T05:03:09.702Z,24.48
2023-06-07T05:05:39.167Z,25.16
2023-06-07T05:08:07.068Z,25.88
2023-06-07T05:10:34.907Z,26.53
2023-06-07T05:13:02.492Z,27.05
2023-06-07T05:15:32.097Z,27.45
2023-06-07T05:18:00.739Z,27.75
2023-06-07T05:20:28.766Z,27.94
2023-06-07T05:22:58.259Z,28.07
2023-06-07T05:25:25.873Z,28.18
2023-06-07T05:28:08.108Z,28.13
2023-06-07T05:30:41.466Z,27.80
2023-06-07T05:33:09.481Z,27.30
2023-06-07T05:35:37.179Z,26.85
2023-06-07T05:38:06.290Z,26.42
2023-06-07T05:40:33.885Z,26.06
2023-06-07T05:43:01.463Z,25.81
2023-06-07T05:45:29.131Z,25.60
2023-06-07T05:47:56.757Z,25.45
2023-06-07T05:50:25.112Z,25.30
2023-06-07T05:52:58.144Z,25.21
2023-06-07T05:55:28.038Z,25.11
2023-06-07T05:57:55.905Z,25.05
2023-06-07T06:00:24.868Z,25.02
2023-06-07T06:02:54.042Z,25.05
2023-06-07T06:05:24.621Z,24.98
2023-06-07T06:07:52.625Z,24.77
2023-06-07T06:10:20.199Z,24.64
2023-06-07T06:12:49.125Z,24.56
2023-06-07T06:15:16.727Z,24.51
2023-06-07T06:17:44.419Z,24.49
2023-06-07T06:20:15.877Z,24.47
2023-06-07T06:22:43.459Z,24.44
2023-06-07T06:25:13.203Z,24.43
2023-06-07T06:27:41.750Z,24.40
2023-06-07T06:30:11.758Z,24.37
2023-06-07T06:32:40.058Z,24.37
2023-06-07T06:35:08.472Z,24.35
2023-06-07T06:37:36.844Z,24.32
2023-06-07T06:40:06.451Z,24.30
2023-06-07T06:42:34.223Z,24.29
2023-06-07T06:45:01.804Z,24.29
2023-06-07T06:47:30.729Z,24.29
2023-06-07T06:50:01.048Z,24.30
2023-06-07T06:52:28.650Z,24.30
2023-06-07T06:54:56.210Z,24.32
2023-06-07T06:57:23.890Z,24.34
2023-06-07T06:59:51.484Z,24.34
2023-06-07T07:02:19.156Z,24.36
2023-06-07T07:04:48.210Z,24.38
2023-06-07T07:07:16.035Z,24.38
2023-06-07T07:09:43.593Z,24.39
2023-06-07T07:12:11.943Z,24.41
2023-06-07T07:14:39.533Z,24.43
2023-06-07T07:17:07.517Z,24.44
2023-06-07T07:19:35.168Z,24.46
2023-06-07T07:22:04.380Z,24.46
2023-06-07T07:24:31.972Z,24.47
2023-06-07T07:26:59.580Z,24.50
2023-06-07T07:29:29.026Z,24.51
2023-06-07T07:31:56.881Z,24.54
2023-06-07T07:34:24.534Z,24.56
2023-06-07T07:36:52.618Z,24.59
2023-06-07T07:39:23.114Z,24.59
2023-06-07T07:41:50.813Z,24.63
2023-06-07T07:44:18.498Z,24.66
2023-06-07T07:46:46.136Z,24.67
2023-06-07T07:49:13.734Z,24.69
2023-06-07T07:51:41.398Z,24.70
2023-06-07T07:54:09.230Z,24.73
2023-06-07T07:56:38.209Z,24.75
2023-06-07T07:59:05.762Z,24.77
2023-06-07T08:01:33.655Z,24.78
2023-06-07T08:04:01.379Z,24.79
2023-06-07T08:06:28.983Z,24.80
2023-06-07T08:08:57.116Z,24.81
2023-06-07T08:11:26.188Z,24.82
2023-06-07T08:13:55.100Z,24.83
2023-06-07T08:16:22.736Z,24.84
2023-06-07T08:18:56.792Z,24.85
2023-06-07T08:21:24.813Z,24.87
2023-06-07T08:23:52.569Z,24.88
2023-06-07T08:26:20.269Z,24.87
2023-06-07T08:28:47.970Z,24.88
2023-06-07T08:31:16.992Z,24.89
2023-06-07T08:33:44.606Z,24.91
2023-06-07T08:36:12.588Z,24.92
2023-06-07T08:38:40.959Z,24.90
2023-06-07T08:41:08.609Z,24.93
2023-06-07T08:43:37.182Z,24.93
2023-06-07T08:46:05.649Z,24.94
2023-06-07T08:48:35.421Z,24.94
2023-06-07T08:51:04.809Z,24.94
2023-06-07T08:53:48.934Z,24.95
2023-06-07T08:56:18.314Z,24.97
2023-06-07T08:58:46.478Z,24.97
2023-06-07T09:01:14.287Z,24.97
2023-06-07T09:03:43.406Z,24.98
2023-06-07T09:06:13.081Z,24.98
2023-06-07T09:08:40.740Z,25.00
2023-06-07T09:11:08.323Z,24.98
2023-06-07T09:13:37.592Z,24.99
2023-06-07T09:16:05.645Z,24.99
2023-06-07T09:18:44.641Z,25.01
2023-06-07T09:21:23.138Z,25.00
2023-06-07T09:23:51.205Z,25.00
2023-06-07T09:26:21.063Z,25.01
2023-06-07T09:28:49.137Z,25.01
2023-06-07T09:31:30.165Z,25.01
2023-06-07T09:33:59.190Z,25.01
2023-06-07T09:36:29.738Z,25.01
2023-06-07T09:38:58.213Z,25.03
2023-06-07T09:41:31.809Z,25.02
2023-06-07T09:43:59.559Z,25.02
2023-06-07T09:46:35.603Z,25.02
2023-06-07T09:49:05.391Z,25.02
2023-06-07T09:51:40.826Z,25.01
2023-06-07T09:54:09.383Z,25.01
2023-06-07T09:56:41.174Z,25.01
2023-06-07T09:59:10.038Z,25.02
2023-06-07T10:01:40.135Z,25.03
2023-06-07T10:04:11.893Z,25.02
2023-06-07T10:06:42.604Z,25.01
2023-06-07T10:09:11.776Z,25.02
2023-06-07T10:11:40.608Z,25.03
2023-06-07T10:14:12.270Z,25.01
2023-06-07T10:16:46.647Z,25.02
2023-06-07T10:19:22.882Z,25.02
2023-06-07T10:21:52.920Z,25.03
2023-06-07T10:24:24.096Z,25.02
2023-06-07T10:26:56.014Z,25.04
2023-06-07T10:29:30.775Z,25.03
2023-06-07T10:32:08.538Z,25.05
2023-06-07T10:34:39.272Z,25.05
2023-06-07T10:37:09.277Z,25.04
2023-06-07T10:39:39.315Z,25.05
2023-06-07T10:42:07.628Z,25.05
2023-06-07T10:44:37.415Z,25.06
2023-06-07T10:47:26.537Z,25.07
2023-06-07T10:49:55.904Z,25.07
2023-06-07T10:52:24.284Z,25.07
2023-06-07T10:54:52.805Z,25.06
2023-06-07T10:57:34.208Z,25.07
2023-06-07T11:00:34.361Z,25.11
2023-06-07T11:03:42.857Z,25.11
2023-06-07T11:06:12.200Z,25.14
2023-06-07T11:08:40.363Z,25.11
2023-06-07T11:11:49.745Z,25.11
2023-06-07T11:14:17.303Z,25.11
2023-06-07T11:16:45.045Z,25.11
2023-06-07T11:19:17.943Z,25.13
2023-06-07T11:22:05.627Z,25.13
2023-06-07T11:24:37.414Z,25.12
2023-06-07T11:27:10.632Z,25.14
2023-06-07T11:29:38.757Z,25.14
2023-06-07T11:32:08.789Z,25.15
2023-06-07T11:34:36.723Z,25.16
2023-06-07T11:37:10.329Z,25.17
2023-06-07T11:39:38.033Z,25.18
2023-06-07T11:42:07.006Z,25.17
2023-06-07T11:44:36.316Z,25.19
2023-06-07T11:47:06.824Z,25.18
2023-06-07T11:49:36.287Z,25.19
2023-06-07T11:52:04.051Z,25.21
2023-06-07T11:54:33.529Z,25.20
2023-06-07T11:57:02.605Z,25.21
2023-06-07T11:59:30.863Z,25.20
2023-06-07T12:01:59.200Z,25.22
2023-06-07T12:04:28.256Z,25.23
2023-06-07T12:06:56.087Z,25.22
2023-06-07T12:09:23.728Z,25.24
2023-06-07T12:11:54.608Z,25.24
2023-06-07T12:14:35.502Z,25.26
2023-06-07T12:17:03.431Z,25.25
2023-06-07T12:19:31.067Z,25.29
2023-06-07T12:22:07.402Z,25.28
2023-06-07T12:24:39.970Z,25.31
2023-06-07T12:27:12.968Z,25.32
2023-06-07T12:29:41.794Z,25.31
2023-06-07T12:32:11.142Z,25.32
2023-06-07T12:34:44.307Z,25.33
2023-06-07T12:37:12.207Z,25.33
2023-06-07T12:39:40.330Z,25.34
2023-06-07T12:42:09.689Z,25.35
2023-06-07T12:44:37.523Z,25.36
2023-06-07T12:47:05.476Z,25.36
2023-06-07T12:49:33.372Z,25.36
2023-06-07T12:52:00.971Z,25.37
2023-06-07T12:54:29.630Z,25.39
2023-06-07T12:56:57.468Z,25.39
2023-06-07T12:59:26.402Z,25.41
2023-06-07T13:01:54.242Z,25.42
2023-06-07T13:04:22.804Z,25.43
2023-06-07T13:06:50.565Z,25.43
2023-06-07T13:09:18.216Z,25.43
2023-06-07T13:11:45.758Z,25.43
2023-06-07T13:14:13.325Z,25.44
2023-06-07T13:16:42.603Z,25.46
2023-06-07T13:19:10.253Z,25.46
2023-06-07T13:21:38.433Z,25.47
2023-06-07T13:24:07.027Z,25.47
2023-06-07T13:26:35.087Z,25.46
2023-06-07T13:29:02.704Z,25.48
2023-06-07T13:31:30.378Z,25.48
2023-06-07T13:33:59.305Z,25.47
2023-06-07T13:36:26.879Z,25.48
2023-06-07T13:38:55.142Z,25.48
2023-06-07T13:41:23.308Z,25.48
2023-06-07T13:43:59.953Z,25.49
2023-06-07T13:46:35.840Z,25.51
2023-06-07T13:49:06.699Z,25.48
2023-06-07T13:51:35.191Z,25.48
2023-06-07T13:54:03.078Z,25.49
2023-06-07T13:56:30.682Z,25.51
2023-06-07T13:58:59.960Z,25.50
2023-06-07T14:01:28.873Z,25.49
2023-06-07T14:03:59.941Z,25.50
2023-06-07T14:06:29.676Z,25.51
2023-06-07T14:08:57.376Z,25.50
2023-06-07T14:11:25.681Z,25.50
2023-06-07T14:13:53.394Z,25.52
2023-06-07T14:16:21.909Z,25.52
2023-06-07T14:18:49.730Z,25.51
2023-06-07T14:21:17.686Z,25.53
2023-06-07T14:23:46.846Z,25.49
2023-06-07T14:26:15.865Z,25.50
2023-06-07T14:28:44.543Z,25.52
2023-06-07T14:31:12.822Z,25.52
2023-06-07T14:33:40.518Z,25.54
2023-06-07T14:36:08.399Z,25.54
2023-06-07T14:38:36.990Z,25.55
2023-06-07T14:41:06.096Z,25.55
2023-06-07T14:43:33.727Z,25.56
2023-06-07T14:46:01.396Z,25.55
2023-06-07T14:48:29.096Z,25.55
2023-06-07T14:50:56.867Z,25.57
2023-06-07T14:53:24.688Z,25.57
2023-06-07T14:55:52.302Z,25.58
2023-06-07T14:58:21.319Z,25.57
2023-06-07T15:00:50.095Z,25.59
2023-06-07T15:03:18.153Z,25.58
2023-06-07T15:05:46.025Z,25.54
2023-06-07T15:08:13.764Z,25.51
2023-06-07T15:10:41.980Z,25.54
2023-06-07T15:13:09.672Z,25.55
2023-06-07T15:15:39.321Z,25.56
2023-06-07T15:18:07.046Z,25.57
2023-06-07T15:20:34.628Z,25.58
2023-06-07T15:23:02.206Z,25.59
2023-06-07T15:25:31.812Z,25.60
2023-06-07T15:28:00.036Z,25.60
2023-06-07T15:30:27.900Z,25.60
2023-06-07T15:32:56.907Z,25.60
2023-06-07T15:35:24.517Z,25.61
2023-06-07T15:37:52.199Z,25.62
2023-06-07T15:40:19.774Z,25.60
2023-06-07T15:42:47.445Z,25.61
2023-06-07T15:45:16.402Z,25.61
2023-06-07T15:48:00.717Z,25.63
2023-06-07T15:50:30.062Z,25.57
2023-06-07T15:52:59.182Z,25.54
2023-06-07T15:55:28.635Z,25.52
2023-06-07T15:57:56.977Z,25.50
2023-06-07T16:00:37.092Z,25.45
2023-06-07T16:03:08.225Z,25.46
2023-06-07T16:05:36.693Z,25.45
2023-06-07T16:08:10.323Z,25.44
2023-06-07T16:10:40.897Z,25.46
2023-06-07T16:13:08.557Z,25.49
2023-06-07T16:15:37.112Z,25.51
2023-06-07T16:18:06.362Z,25.53
2023-06-07T16:20:35.611Z,25.53
2023-06-07T16:23:03.372Z,25.54
2023-06-07T16:25:30.997Z,25.54
2023-06-07T16:27:58.598Z,25.54
2023-06-07T16:30:26.545Z,25.53
2023-06-07T16:32:54.974Z,25.52
2023-06-07T16:35:22.951Z,25.54
2023-06-07T16:37:52.078Z,25.53
2023-06-07T16:40:19.876Z,25.55
2023-06-07T16:42:48.634Z,25.55
2023-06-07T16:45:16.378Z,25.55
2023-06-07T16:47:44.047Z,25.49
2023-06-07T16:50:12.430Z,25.46
2023-06-07T16:52:40.117Z,25.46
2023-06-07T16:55:10.466Z,25.46
2023-06-07T16:57:40.446Z,25.43
2023-06-07T17:00:09.973Z,25.38
2023-06-07T17:02:37.764Z,25.37
2023-06-07T17:05:06.233Z,25.36
2023-06-07T17:07:33.849Z,25.36
2023-06-07T17:10:01.504Z,25.34
2023-06-07T17:12:30.578Z,25.36
2023-06-07T17:14:58.266Z,25.36
2023-06-07T17:17:26.747Z,25.36
2023-06-07T17:19:54.515Z,25.34
2023-06-07T17:22:22.290Z,25.32
2023-06-07T17:24:49.917Z,25.32
2023-06-07T17:27:17.627Z,25.29
2023-06-07T17:29:46.656Z,25.28
2023-06-07T17:32:14.337Z,25.28
2023-06-07T17:34:42.011Z,25.26
2023-06-07T17:37:11.500Z,25.22
2023-06-07T17:39:39.145Z,25.24
2023-06-07T17:42:07.659Z,25.24
2023-06-07T17:44:35.331Z,25.23
2023-06-07T17:47:04.746Z,25.23
2023-06-07T17:49:32.341Z,25.21
2023-06-07T17:52:06.253Z,25.21
2023-06-07T17:54:47.456Z,25.20
2023-06-07T17:57:15.143Z,25.19
2023-06-07T17:59:43.743Z,25.17
2023-06-07T18:02:12.724Z,25.18
2023-06-07T18:04:40.396Z,25.15
2023-06-07T18:07:08.004Z,25.12
2023-06-07T18:09:36.610Z,25.12
2023-06-07T18:12:04.556Z,25.12
2023-06-07T18:14:32.109Z,25.11
2023-06-07T18:16:59.868Z,25.11
2023-06-07T18:19:28.774Z,25.12
2023-06-07T18:21:57.888Z,25.12
2023-06-07T18:24:25.462Z,25.10
2023-06-07T18:26:53.062Z,25.07
2023-06-07T18:29:20.723Z,25.04
2023-06-07T18:31:48.504Z,25.01
2023-06-07T18:34:17.401Z,24.97
2023-06-07T18:36:47.424Z,24.94
2023-06-07T18:39:15.233Z,24.94
2023-06-07T18:41:43.235Z,24.91
2023-06-07T18:44:10.995Z,24.89
2023-06-07T18:46:38.897Z,24.86
2023-06-07T18:49:06.575Z,24.81
2023-06-07T18:51:34.274Z,24.82
2023-06-07T18:54:03.266Z,24.77
2023-06-07T18:56:30.891Z,24.79
2023-06-07T18:58:58.725Z,24.77
2023-06-07T19:01:38.020Z,24.75
2023-06-07T19:04:10.374Z,24.71
2023-06-07T19:06:38.027Z,24.71
2023-06-07T19:09:07.233Z,24.66
2023-06-07T19:11:35.893Z,24.64
2023-06-07T19:14:05.162Z,24.62
2023-06-07T19:16:32.984Z,24.56
2023-06-07T19:19:00.792Z,24.56
2023-06-07T19:21:30.269Z,24.55
2023-06-07T19:23:58.427Z,24.51
2023-06-07T19:26:29.374Z,24.51
2023-06-07T19:28:58.504Z,24.51
2023-06-07T19:31:26.590Z,24.50
2023-06-07T19:33:54.399Z,24.52
2023-06-07T19:36:22.297Z,24.51
2023-06-07T19:38:49.974Z,24.48
2023-06-07T19:41:17.823Z,24.46
2023-06-07T19:43:46.786Z,24.43
2023-06-07T19:46:14.506Z,24.43
2023-06-07T19:48:42.129Z,24.41
2023-06-07T19:51:10.087Z,24.40
2023-06-07T19:53:37.787Z,24.38
2023-06-07T19:56:06.278Z,24.32
2023-06-07T19:58:35.319Z,24.29
2023-06-07T20:01:04.455Z,24.27
2023-06-07T20:03:32.187Z,24.26
2023-06-07T20:06:00.050Z,24.24
2023-06-07T20:08:27.836Z,24.23
2023-06-07T20:10:55.400Z,24.21
2023-06-07T20:13:24.150Z,24.21
2023-06-07T20:15:51.757Z,24.19
2023-06-07T20:18:20.736Z,24.16
2023-06-07T20:20:48.518Z,24.16
2023-06-07T20:23:16.144Z,24.12
2023-06-07T20:25:43.754Z,24.07
2023-06-07T20:28:11.320Z,24.04
2023-06-07T20:30:39.189Z,23.99
2023-06-07T20:33:08.304Z,23.97
2023-06-07T20:35:37.269Z,23.96
2023-06-07T20:38:04.900Z,23.94
2023-06-07T20:40:32.482Z,23.93
2023-06-07T20:43:00.195Z,23.90
2023-06-07T20:45:27.868Z,23.92
2023-06-07T20:47:55.549Z,23.94
2023-06-07T20:50:23.177Z,23.94
2023-06-07T20:52:52.208Z,23.94
2023-06-07T20:55:19.847Z,23.94
2023-06-07T20:57:47.423Z,24.05
2023-06-07T21:00:16.077Z,23.99
2023-06-07T21:02:43.699Z,24.02
2023-06-07T21:05:11.367Z,24.06
2023-06-07T21:07:38.931Z,24.05
2023-06-07T21:10:09.312Z,24.03
2023-06-07T21:12:37.090Z,23.99
2023-06-07T21:15:05.410Z,23.97
2023-06-07T21:17:34.340Z,23.95
2023-06-07T21:20:02.066Z,23.94
2023-06-07T21:22:29.709Z,23.92
2023-06-07T21:24:57.319Z,23.88
2023-06-07T21:27:26.378Z,23.88
2023-06-07T21:29:54.119Z,23.85
2023-06-07T21:32:21.710Z,23.81
2023-06-07T21:34:49.384Z,23.80
2023-06-07T21:37:17.148Z,23.76
2023-06-07T21:39:45.077Z,23.74
2023-06-07T21:42:12.980Z,23.71
2023-06-07T21:44:41.866Z,23.70
2023-06-07T21:47:09.473Z,23.67
2023-06-07T21:49:37.088Z,23.61
2023-06-07T21:52:04.906Z,23.59
2023-06-07T21:54:32.538Z,23.55
2023-06-07T21:57:00.066Z,23.55
2023-06-07T21:59:27.690Z,23.54
2023-06-07T22:01:57.654Z,23.51
2023-06-07T22:04:25.570Z,23.50
2023-06-07T22:06:53.214Z,23.48
2023-06-07T22:09:20.926Z,23.46
2023-06-07T22:11:48.487Z,23.42
2023-06-07T22:14:16.104Z,23.40
2023-06-07T22:16:45.751Z,23.39
2023-06-07T22:19:16.026Z,23.38
2023-06-07T22:21:43.683Z,23.35
2023-06-07T22:24:11.764Z,23.36
2023-06-07T22:26:39.633Z,23.33
2023-06-07T22:29:07.218Z,23.28
2023-06-07T22:31:35.522Z,23.25
2023-06-07T22:34:05.029Z,23.23
2023-06-07T22:36:38.981Z,23.22
2023-06-07T22:39:07.450Z,23.23
2023-06-07T22:41:35.000Z,23.22
2023-06-07T22:44:03.320Z,23.20
2023-06-07T22:46:32.006Z,23.16
2023-06-07T22:49:01.575Z,23.13
2023-06-07T22:51:34.061Z,23.09
2023-06-07T22:54:03.855Z,23.07
2023-06-07T22:56:31.913Z,23.04
2023-06-07T22:58:59.529Z,23.02
2023-06-07T23:01:30.542Z,23.03
2023-06-07T23:03:58.414Z,23.02
2023-06-07T23:06:35.533Z,22.99
2023-06-07T23:09:05.152Z,22.98
2023-06-07T23:11:33.361Z,22.96
2023-06-07T23:14:01.051Z,22.93
2023-06-07T23:16:29.170Z,22.92
2023-06-07T23:18:58.001Z,22.90
2023-06-07T23:21:30.130Z,22.89
2023-06-07T23:23:58.481Z,22.87
2023-06-07T23:26:27.408Z,22.86
2023-06-07T23:28:54.998Z,22.84
2023-06-07T23:31:22.786Z,22.83
2023-06-07T23:33:50.861Z,22.81
2023-06-07T23:36:21.302Z,22.81
2023-06-07T23:38:49.232Z,22.81
2023-06-07T23:41:16.824Z,22.77
2023-06-07T23:43:46.094Z,22.73
2023-06-07T23:46:13.720Z,22.71
2023-06-07T23:48:41.322Z,22.70
2023-06-07T23:51:08.988Z,22.68
2023-06-07T23:53:36.570Z,22.67
2023-06-07T23:56:04.146Z,22.64
2023-06-07T23:58:31.766Z,22.64
